Ulyanovsk, Russia
Current Conditions -  °F | °C
As of 2:00 AM on Thursday 27 Nov 2014 (Local Time) from UWLW Reporting Station
Light Snow Light Snow  
Wind Chill: 19°   Ceiling: 1000
Heat Index: 19°   Visibility: 3mi
Dew Point: 18°   Wind: 0mph
Humidity: 93%   Direction: NA
Pressure: 30.45"   Gusts: NA
Location:  54.33°N, 48.4°E
Report Text: UWLW 262300Z 00000MPS 5000 -SN OVC010 M07/M08 Q1031 20CLRD60NOSIG RMK QFE767
Loading
Personal Weather Stations






























Interactive Weather Map New forecast layout! Learn more

10-Day Weather Forecast

Advertisements
Track Severe Weather on mobile